createdAt,value
2018-03-01T00:00:24.424Z,97627.61
2018-03-01T00:01:28.070Z,97637.19
2018-03-01T00:02:31.544Z,97627.44
2018-03-01T00:03:35.056Z,97625.59
2018-03-01T00:04:38.584Z,97633.60
2018-03-01T00:05:42.026Z,97633.75
2018-03-01T00:06:45.574Z,97635.77
2018-03-01T00:07:49.520Z,97623.78
2018-03-01T00:08:53.043Z,97636.88
2018-03-01T00:09:56.463Z,97621.53
2018-03-01T00:11:00.085Z,97640.52
2018-03-01T00:12:03.642Z,97624.02
2018-03-01T00:13:07.199Z,97631.24
2018-03-01T00:14:11.521Z,97641.01
2018-03-01T00:15:16.104Z,97650.82
2018-03-01T00:16:19.605Z,97638.66
2018-03-01T00:17:23.031Z,97644.98
2018-03-01T00:18:26.479Z,97648.26
2018-03-01T00:19:29.935Z,97642.55
2018-03-01T00:20:33.746Z,97641.63
2018-03-01T00:21:37.178Z,97632.13
2018-03-01T00:22:40.508Z,97625.57
2018-03-01T00:23:44.677Z,97631.26
2018-03-01T00:24:48.210Z,97632.41
2018-03-01T00:25:51.804Z,97632.20
2018-03-01T00:26:55.827Z,97633.06
2018-03-01T00:27:59.324Z,97635.55
2018-03-01T00:29:03.007Z,97624.95
2018-03-01T00:30:06.567Z,97618.64
2018-03-01T00:31:09.997Z,97609.22
2018-03-01T00:32:13.321Z,97623.92
2018-03-01T00:33:17.131Z,97611.23
2018-03-01T00:34:20.701Z,97601.34
2018-03-01T00:35:24.268Z,97604.06
2018-03-01T00:36:27.835Z,97594.38
2018-03-01T00:37:31.392Z,97604.60
2018-03-01T00:38:35.046Z,97609.20
2018-03-01T00:39:38.878Z,97595.48
2018-03-01T00:40:43.281Z,97594.78
2018-03-01T00:41:46.784Z,97595.64
2018-03-01T00:42:50.460Z,97592.29
2018-03-01T00:43:54.042Z,97596.48
2018-03-01T00:44:57.724Z,97591.59
2018-03-01T00:46:01.541Z,97603.69
2018-03-01T00:47:05.156Z,97597.36
2018-03-01T00:48:08.815Z,97594.34
2018-03-01T00:49:12.575Z,97605.24
2018-03-01T00:50:16.131Z,97599.86
2018-03-01T00:51:19.623Z,97603.13
2018-03-01T00:52:23.588Z,97592.22
2018-03-01T00:53:27.213Z,97589.48
2018-03-01T00:54:31.089Z,97578.36
2018-03-01T00:55:34.800Z,97573.59
2018-03-01T00:56:38.341Z,97568.78
2018-03-01T00:57:42.029Z,97571.20
2018-03-01T00:58:45.802Z,97566.97
2018-03-01T00:59:49.494Z,97572.75
2018-03-01T01:00:53.105Z,97573.84
2018-03-01T01:01:56.550Z,97587.63
2018-03-01T01:03:00.040Z,97571.83
2018-03-01T01:04:03.576Z,97552.73
2018-03-01T01:05:07.517Z,97562.00
2018-03-01T01:06:11.239Z,97563.95
2018-03-01T01:07:14.725Z,97559.04
2018-03-01T01:08:18.348Z,97555.00
2018-03-01T01:09:21.959Z,97558.10
2018-03-01T01:10:25.561Z,97565.89
2018-03-01T01:11:29.471Z,97554.11
2018-03-01T01:12:33.053Z,97556.14
2018-03-01T01:13:36.583Z,97553.05
2018-03-01T01:14:40.147Z,97563.08
2018-03-01T01:15:44.217Z,97563.93
2018-03-01T01:16:47.941Z,97561.77
2018-03-01T01:17:51.772Z,97554.66
2018-03-01T01:18:55.367Z,97556.47
2018-03-01T01:19:59.251Z,97558.95
2018-03-01T01:21:02.949Z,97562.86
2018-03-01T01:22:06.520Z,97569.33
2018-03-01T01:23:10.219Z,97563.08
2018-03-01T01:24:13.835Z,97567.91
2018-03-01T01:25:17.597Z,97565.34
2018-03-01T01:26:21.189Z,97564.72
2018-03-01T01:27:24.993Z,97571.34
2018-03-01T01:28:29.040Z,97563.38
2018-03-01T01:29:32.658Z,97567.61
2018-03-01T01:30:36.517Z,97573.69
2018-03-01T01:31:40.159Z,97568.23
2018-03-01T01:32:44.828Z,97567.13
2018-03-01T01:33:48.441Z,97593.23
2018-03-01T01:34:52.441Z,97588.96
2018-03-01T01:35:56.248Z,97590.81
2018-03-01T01:37:00.034Z,97576.80
2018-03-01T01:38:03.699Z,97601.97
2018-03-01T01:39:07.470Z,97592.30
2018-03-01T01:40:11.133Z,97597.12
2018-03-01T01:41:15.333Z,97590.74
2018-03-01T01:42:18.823Z,97588.57
2018-03-01T01:43:22.402Z,97595.03
2018-03-01T01:44:26.169Z,97599.00
2018-03-01T01:45:29.823Z,97605.47
2018-03-01T01:46:33.120Z,97607.03
2018-03-01T01:47:36.961Z,97588.48
2018-03-01T01:48:40.619Z,97593.01
2018-03-01T01:49:44.312Z,97580.16
2018-03-01T01:50:48.069Z,97588.95
2018-03-01T01:51:51.730Z,97572.73
2018-03-01T01:52:55.280Z,97577.80
2018-03-01T01:53:59.498Z,97577.97
2018-03-01T01:55:03.075Z,97569.79
2018-03-01T01:56:06.662Z,97579.77
2018-03-01T01:57:10.300Z,97573.77
2018-03-01T01:58:14.174Z,97578.75
2018-03-01T01:59:17.647Z,97582.33
2018-03-01T02:00:21.640Z,97573.05
2018-03-01T02:01:25.030Z,97567.75
2018-03-01T02:02:28.622Z,97567.45
2018-03-01T02:03:32.286Z,97546.80
2018-03-01T02:04:36.116Z,97568.14
2018-03-01T02:05:39.887Z,97570.01
2018-03-01T02:06:43.744Z,97563.88
2018-03-01T02:07:48.307Z,97567.07
2018-03-01T02:08:51.864Z,97561.91
2018-03-01T02:09:55.386Z,97570.89
2018-03-01T02:10:59.043Z,97561.69
2018-03-01T02:12:02.650Z,97558.56
2018-03-01T02:13:06.663Z,97556.06
2018-03-01T02:14:10.341Z,97544.39
2018-03-01T02:15:14.358Z,97532.31
2018-03-01T02:16:17.977Z,97555.77
2018-03-01T02:17:21.570Z,97550.09
2018-03-01T02:18:25.265Z,97529.52
2018-03-01T02:19:29.165Z,97534.34
2018-03-01T02:20:32.683Z,97529.13
2018-03-01T02:21:36.228Z,97524.60
2018-03-01T02:22:39.593Z,97520.09
2018-03-01T02:23:43.348Z,97529.33
2018-03-01T02:24:47.002Z,97526.78
2018-03-01T02:25:50.809Z,97528.19
2018-03-01T02:26:54.427Z,97525.92
2018-03-01T02:27:57.982Z,97517.11
2018-03-01T02:29:01.560Z,97527.22
2018-03-01T02:30:05.193Z,97528.55
2018-03-01T02:31:08.811Z,97524.83
2018-03-01T02:32:12.517Z,97522.48
2018-03-01T02:33:16.048Z,97504.56
2018-03-01T02:34:19.511Z,97515.45
2018-03-01T02:35:22.794Z,97518.05
2018-03-01T02:36:27.214Z,97516.09
2018-03-01T02:37:30.439Z,97508.78
2018-03-01T02:38:33.911Z,97497.09
2018-03-01T02:39:37.737Z,97492.87
2018-03-01T02:40:41.188Z,97491.08
2018-03-01T02:41:44.728Z,97480.41
2018-03-01T02:42:48.307Z,97484.06
2018-03-01T02:43:52.122Z,97471.52
2018-03-01T02:44:55.845Z,97462.87
2018-03-01T02:45:59.335Z,97475.91
2018-03-01T02:47:03.044Z,97466.17
2018-03-01T02:48:06.288Z,97444.88
2018-03-01T02:49:10.008Z,97462.87
2018-03-01T02:50:13.761Z,97459.28
2018-03-01T02:51:17.393Z,97450.41
2018-03-01T02:52:20.650Z,97456.90
2018-03-01T02:53:24.119Z,97456.74
2018-03-01T02:54:27.744Z,97440.37
2018-03-01T02:55:31.311Z,97463.28
2018-03-01T02:56:34.952Z,97463.13
2018-03-01T02:57:38.624Z,97455.81
2018-03-01T02:58:41.944Z,97450.90
2018-03-01T02:59:45.265Z,97448.69
2018-03-01T03:00:48.847Z,97438.33
2018-03-01T03:01:52.353Z,97427.45
2018-03-01T03:02:56.069Z,97425.27
2018-03-01T03:03:59.533Z,97434.70
2018-03-01T03:05:02.845Z,97437.31
2018-03-01T03:06:06.130Z,97425.34
2018-03-01T03:07:09.573Z,97434.14
2018-03-01T03:08:13.086Z,97423.63
2018-03-01T03:09:16.863Z,97424.95
2018-03-01T03:10:20.130Z,97434.09
2018-03-01T03:11:23.930Z,97432.97
2018-03-01T03:12:27.230Z,97433.28
2018-03-01T03:13:30.717Z,97432.98
2018-03-01T03:14:33.935Z,97422.30
2018-03-01T03:15:37.472Z,97418.56
2018-03-01T03:16:40.649Z,97425.81
2018-03-01T03:17:43.892Z,97423.86
2018-03-01T03:18:47.253Z,97423.47
2018-03-01T03:19:50.733Z,97425.34
2018-03-01T03:20:54.051Z,97427.68
2018-03-01T03:21:57.728Z,97407.89
2018-03-01T03:23:01.139Z,97392.86
2018-03-01T03:24:04.844Z,97394.57
2018-03-01T03:25:08.062Z,97412.41
2018-03-01T03:26:11.763Z,97402.52
2018-03-01T03:27:15.266Z,97411.22
2018-03-01T03:28:19.929Z,97410.70
2018-03-01T03:29:23.468Z,97404.77
2018-03-01T03:30:27.050Z,97399.41
2018-03-01T03:31:30.418Z,97394.11
2018-03-01T03:32:33.880Z,97392.16
2018-03-01T03:33:37.272Z,97386.39
2018-03-01T03:34:41.337Z,97361.43
2018-03-01T03:35:44.487Z,97376.94
2018-03-01T03:36:47.641Z,97380.00
2018-03-01T03:37:50.862Z,97373.38
2018-03-01T03:38:54.195Z,97377.52
2018-03-01T03:39:57.483Z,97355.55
2018-03-01T03:41:01.286Z,97371.04
2018-03-01T03:42:04.816Z,97373.77
2018-03-01T03:43:08.603Z,97382.42
2018-03-01T03:44:11.906Z,97355.84
2018-03-01T03:45:15.469Z,97344.72
2018-03-01T03:46:18.665Z,97355.08
2018-03-01T03:47:22.204Z,97352.73
2018-03-01T03:48:25.650Z,97348.06
2018-03-01T03:49:28.815Z,97355.78
2018-03-01T03:50:32.112Z,97365.13
2018-03-01T03:51:35.536Z,97371.36
2018-03-01T03:52:38.824Z,97359.59
2018-03-01T03:53:41.967Z,97348.37
2018-03-01T03:54:45.113Z,97360.69
2018-03-01T03:55:48.373Z,97370.73
2018-03-01T03:56:51.622Z,97357.09
2018-03-01T03:57:55.035Z,97356.47
2018-03-01T03:58:58.242Z,97353.75
2018-03-01T04:00:01.574Z,97346.27
2018-03-01T04:01:04.763Z,97348.14
2018-03-01T04:02:07.917Z,97350.63
2018-03-01T04:03:11.040Z,97339.58
2018-03-01T04:04:14.231Z,97346.73
2018-03-01T04:05:17.565Z,97354.84
2018-03-01T04:06:21.176Z,97356.23
2018-03-01T04:07:24.390Z,97346.66
2018-03-01T04:08:27.617Z,97351.61
2018-03-01T04:09:30.906Z,97350.94
2018-03-01T04:10:34.196Z,97338.75
2018-03-01T04:11:37.393Z,97343.08
2018-03-01T04:12:40.945Z,97347.75
2018-03-01T04:13:44.179Z,97335.20
2018-03-01T04:14:47.232Z,97340.42
2018-03-01T04:15:50.571Z,97346.58
2018-03-01T04:16:53.709Z,97343.70
2018-03-01T04:17:57.016Z,97343.78
2018-03-01T04:19:00.534Z,97338.80
2018-03-01T04:20:03.540Z,97333.58
2018-03-01T04:21:06.620Z,97336.34
2018-03-01T04:22:09.742Z,97335.20
2018-03-01T04:23:12.887Z,97308.80
2018-03-01T04:24:16.292Z,97317.29
2018-03-01T04:25:19.808Z,97325.08
2018-03-01T04:26:22.920Z,97329.83
2018-03-01T04:27:26.872Z,97324.62
2018-03-01T04:28:30.144Z,97329.17
2018-03-01T04:29:33.466Z,97332.29
2018-03-01T04:30:36.843Z,97326.95
2018-03-01T04:31:40.405Z,97328.73
2018-03-01T04:32:43.721Z,97327.89
2018-03-01T04:33:47.041Z,97322.91
2018-03-01T04:34:50.246Z,97334.82
2018-03-01T04:35:53.588Z,97342.22
2018-03-01T04:36:56.761Z,97340.03
2018-03-01T04:38:00.414Z,97347.31
2018-03-01T04:39:03.900Z,97341.71
2018-03-01T04:40:07.232Z,97325.70
2018-03-01T04:41:10.722Z,97322.03
2018-03-01T04:42:14.002Z,97329.44
2018-03-01T04:43:17.432Z,97310.89
2018-03-01T04:44:20.531Z,97328.70
2018-03-01T04:45:23.954Z,97327.26
2018-03-01T04:46:27.085Z,97307.70
2018-03-01T04:47:30.728Z,97314.13
2018-03-01T04:48:34.084Z,97334.97
2018-03-01T04:49:37.723Z,97326.95
2018-03-01T04:50:40.957Z,97333.45
2018-03-01T04:51:44.502Z,97315.11
2018-03-01T04:52:47.910Z,97306.27
2018-03-01T04:53:52.676Z,97301.98
2018-03-01T04:54:56.002Z,97302.72
2018-03-01T04:55:59.722Z,97301.86
2018-03-01T04:57:02.919Z,97301.09
2018-03-01T04:58:06.308Z,97313.24
2018-03-01T04:59:09.786Z,97303.72
2018-03-01T05:00:13.055Z,97302.17
2018-03-01T05:01:16.286Z,97304.91
2018-03-01T05:02:19.995Z,97325.90
2018-03-01T05:03:23.157Z,97315.80
2018-03-01T05:04:26.343Z,97313.08
2018-03-01T05:05:29.850Z,97310.05
2018-03-01T05:06:33.512Z,97317.56
2018-03-01T05:07:36.938Z,97324.17
2018-03-01T05:08:40.824Z,97322.54
2018-03-01T05:09:44.242Z,97313.27
2018-03-01T05:10:47.699Z,97329.79
2018-03-01T05:11:51.231Z,97320.28
2018-03-01T05:12:54.706Z,97322.70
2018-03-01T05:13:58.079Z,97319.20
2018-03-01T05:15:02.156Z,97311.23
2018-03-01T05:16:05.861Z,97301.58
2018-03-01T05:17:09.341Z,97306.80
2018-03-01T05:18:12.620Z,97297.71
2018-03-01T05:19:16.082Z,97287.31
2018-03-01T05:20:19.750Z,97295.81
2018-03-01T05:21:23.683Z,97296.52
2018-03-01T05:22:27.122Z,97300.27
2018-03-01T05:23:30.809Z,97295.28
2018-03-01T05:24:34.537Z,97305.56
2018-03-01T05:25:38.161Z,97299.95
2018-03-01T05:26:41.831Z,97290.52
2018-03-01T05:27:45.968Z,97299.95
2018-03-01T05:28:49.525Z,97297.38
2018-03-01T05:29:53.291Z,97294.72
2018-03-01T05:30:56.846Z,97295.28
2018-03-01T05:32:00.392Z,97301.90
2018-03-01T05:33:03.847Z,97300.17
2018-03-01T05:34:07.820Z,97304.78
2018-03-01T05:35:11.500Z,97304.81
2018-03-01T05:36:15.097Z,97305.41
2018-03-01T05:37:18.784Z,97305.56
2018-03-01T05:38:22.458Z,97311.97
2018-03-01T05:39:26.173Z,97287.63
2018-03-01T05:40:30.118Z,97302.20
2018-03-01T05:41:33.755Z,97298.54
2018-03-01T05:42:37.425Z,97297.53
2018-03-01T05:43:41.053Z,97304.08
2018-03-01T05:44:44.737Z,97314.12
2018-03-01T05:45:48.353Z,97322.39
2018-03-01T05:46:52.457Z,97320.90
2018-03-01T05:47:56.132Z,97331.88
2018-03-01T05:48:59.677Z,97332.20
2018-03-01T05:50:03.445Z,97340.61
2018-03-01T05:51:07.259Z,97335.23
2018-03-01T05:52:11.083Z,97329.23
2018-03-01T05:53:15.476Z,97323.09
2018-03-01T05:54:19.113Z,97325.19
2018-03-01T05:55:22.758Z,97318.17
2018-03-01T05:56:26.540Z,97320.67
2018-03-01T05:57:30.303Z,97323.86
2018-03-01T05:58:34.176Z,97327.22
2018-03-01T05:59:38.178Z,97319.27
2018-03-01T06:00:41.834Z,97309.61
2018-03-01T06:01:45.446Z,97313.58
2018-03-01T06:02:49.382Z,97317.63
2018-03-01T06:03:53.781Z,97314.52
2018-03-01T06:04:57.289Z,97318.58
2018-03-01T06:06:01.492Z,97316.39
2018-03-01T06:07:04.902Z,97314.69
2018-03-01T06:08:08.618Z,97314.02
2018-03-01T06:09:12.327Z,97310.36
2018-03-01T06:10:16.042Z,97309.23
2018-03-01T06:11:19.711Z,97308.95
2018-03-01T06:12:23.783Z,97321.11
2018-03-01T06:13:27.587Z,97324.45
2018-03-01T06:14:31.218Z,97317.99
2018-03-01T06:15:34.926Z,97323.05
2018-03-01T06:16:38.575Z,97324.92
2018-03-01T06:17:42.326Z,97328.35
2018-03-01T06:18:46.504Z,97323.20
2018-03-01T06:19:50.061Z,97324.42
2018-03-01T06:20:53.726Z,97316.34
2018-03-01T06:21:57.439Z,97317.31
2018-03-01T06:23:01.182Z,97303.33
2018-03-01T06:24:05.120Z,97316.69
2018-03-01T06:25:09.223Z,97328.94
2018-03-01T06:26:12.697Z,97326.71
2018-03-01T06:27:16.428Z,97328.59
2018-03-01T06:28:20.213Z,97322.98
2018-03-01T06:29:24.000Z,97325.31
2018-03-01T06:30:27.769Z,97321.50
2018-03-01T06:31:31.602Z,97320.02
2018-03-01T06:32:35.027Z,97315.58
2018-03-01T06:33:38.872Z,97322.42
2018-03-01T06:34:42.712Z,97315.88
2018-03-01T06:35:46.355Z,97319.00
2018-03-01T06:36:50.624Z,97312.23
2018-03-01T06:37:54.166Z,97311.75
2018-03-01T06:38:58.037Z,97318.07
2018-03-01T06:40:01.675Z,97308.95
2018-03-01T06:41:05.226Z,97319.23
2018-03-01T06:42:08.947Z,97323.20
2018-03-01T06:43:12.827Z,97323.08
2018-03-01T06:44:16.377Z,97317.05
2018-03-01T06:45:20.255Z,97325.34
2018-03-01T06:46:23.995Z,97317.95
2018-03-01T06:47:27.548Z,97317.64
2018-03-01T06:48:31.167Z,97308.91
2018-03-01T06:49:35.468Z,97302.98
2018-03-01T06:50:39.336Z,97308.93
2018-03-01T06:51:42.957Z,97308.55
2018-03-01T06:52:46.526Z,97301.41
2018-03-01T06:53:50.329Z,97305.00
2018-03-01T06:54:54.200Z,97300.67
2018-03-01T06:55:58.351Z,97292.64
2018-03-01T06:57:01.876Z,97303.48
2018-03-01T06:58:05.449Z,97294.73
2018-03-01T06:59:09.020Z,97293.48
2018-03-01T07:00:12.437Z,97283.56
2018-03-01T07:01:16.116Z,97294.26
2018-03-01T07:02:20.323Z,97293.80
2018-03-01T07:03:23.833Z,97305.33
2018-03-01T07:04:27.982Z,97292.73
2018-03-01T07:05:32.272Z,97301.45
2018-03-01T07:06:35.978Z,97280.66
2018-03-01T07:07:39.397Z,97296.16
2018-03-01T07:08:43.376Z,97288.68
2018-03-01T07:09:46.952Z,97296.50
2018-03-01T07:10:50.610Z,97287.97
2018-03-01T07:11:54.415Z,97297.43
2018-03-01T07:12:58.095Z,97297.08
2018-03-01T07:14:01.740Z,97285.98
2018-03-01T07:15:05.548Z,97289.05
2018-03-01T07:16:09.163Z,97283.14
2018-03-01T07:17:12.711Z,97274.45
2018-03-01T07:18:16.281Z,97268.25
2018-03-01T07:19:20.054Z,97286.34
2018-03-01T07:20:23.631Z,97286.30
2018-03-01T07:21:27.613Z,97281.84
2018-03-01T07:22:31.120Z,97264.41
2018-03-01T07:23:34.730Z,97281.23
2018-03-01T07:24:38.103Z,97271.93
2018-03-01T07:25:41.686Z,97280.59
2018-03-01T07:26:45.449Z,97276.49
2018-03-01T07:27:49.328Z,97263.00
2018-03-01T07:28:52.731Z,97266.63
2018-03-01T07:29:56.358Z,97274.27
2018-03-01T07:30:59.985Z,97266.63
2018-03-01T07:32:03.522Z,97255.03
2018-03-01T07:33:07.095Z,97265.28
2018-03-01T07:34:10.978Z,97277.42
2018-03-01T07:35:14.523Z,97267.56
2018-03-01T07:36:18.087Z,97241.35
2018-03-01T07:37:21.689Z,97268.64
2018-03-01T07:38:25.661Z,97263.57
2018-03-01T07:39:30.149Z,97261.91
2018-03-01T07:40:33.693Z,97244.34
2018-03-01T07:41:37.234Z,97258.70
2018-03-01T07:42:40.849Z,97259.58
2018-03-01T07:43:44.403Z,97267.38
2018-03-01T07:44:47.904Z,97257.08
2018-03-01T07:45:51.798Z,97256.52
2018-03-01T07:46:55.247Z,97256.19
2018-03-01T07:47:58.802Z,97252.31
2018-03-01T07:49:02.428Z,97245.97
2018-03-01T07:50:06.146Z,97251.45
2018-03-01T07:51:09.638Z,97247.02
2018-03-01T07:52:13.434Z,97253.44
2018-03-01T07:53:16.951Z,97249.41
2018-03-01T07:54:20.730Z,97245.57
2018-03-01T07:55:24.148Z,97242.58
2018-03-01T07:56:27.545Z,97240.89
2018-03-01T07:57:31.124Z,97236.81
2018-03-01T07:58:35.285Z,97242.38
2018-03-01T07:59:38.934Z,97235.27
2018-03-01T08:00:42.475Z,97240.49
2018-03-01T08:01:45.991Z,97238.38
2018-03-01T08:02:49.480Z,97243.64
2018-03-01T08:03:53.060Z,97227.25
2018-03-01T08:04:57.096Z,97238.55
2018-03-01T08:06:00.747Z,97225.31
2018-03-01T08:07:04.803Z,97212.12
2018-03-01T08:08:08.247Z,97210.70
2018-03-01T08:09:11.808Z,97218.37
2018-03-01T08:10:15.438Z,97194.36
2018-03-01T08:11:19.268Z,97204.45
2018-03-01T08:12:22.831Z,97198.71
2018-03-01T08:13:26.301Z,97205.33
2018-03-01T08:14:29.797Z,97209.88
2018-03-01T08:15:33.601Z,97234.64
2018-03-01T08:16:37.126Z,97222.61
2018-03-01T08:17:40.854Z,97215.41
2018-03-01T08:18:44.327Z,97230.76
2018-03-01T08:19:48.030Z,97236.56
2018-03-01T08:20:51.591Z,97215.45
2018-03-01T08:21:54.989Z,97236.91
2018-03-01T08:22:58.879Z,97222.50
2018-03-01T08:24:02.665Z,97218.33
2018-03-01T08:25:06.152Z,97230.78
2018-03-01T08:26:09.722Z,97225.48
2018-03-01T08:27:13.161Z,97238.92
2018-03-01T08:28:16.664Z,97227.01
2018-03-01T08:29:20.409Z,97225.88
2018-03-01T08:30:24.973Z,97219.19
2018-03-01T08:31:28.610Z,97217.27
2018-03-01T08:32:32.097Z,97217.92
2018-03-01T08:33:35.576Z,97210.25
2018-03-01T08:34:39.202Z,97222.66
2018-03-01T08:35:43.247Z,97225.97
2018-03-01T08:36:46.634Z,97231.50
2018-03-01T08:37:50.100Z,97221.16
2018-03-01T08:38:53.570Z,97219.45
2018-03-01T08:39:57.461Z,97229.59
2018-03-01T08:41:01.119Z,97229.66
2018-03-01T08:42:05.054Z,97225.36
2018-03-01T08:43:08.670Z,97221.69
2018-03-01T08:44:12.345Z,97213.20
2018-03-01T08:45:15.772Z,97216.93
2018-03-01T08:46:19.144Z,97207.59
2018-03-01T08:47:22.729Z,97199.08
2018-03-01T08:48:26.684Z,97200.27
2018-03-01T08:49:30.156Z,97186.47
2018-03-01T08:50:33.550Z,97195.45
2018-03-01T08:51:36.967Z,97198.19
2018-03-01T08:52:40.457Z,97198.62
2018-03-01T08:53:43.960Z,97192.77
2018-03-01T08:54:47.670Z,97197.53
2018-03-01T08:55:51.107Z,97178.31
2018-03-01T08:56:54.596Z,97199.48
2018-03-01T08:57:57.999Z,97196.56
2018-03-01T08:59:01.416Z,97196.31
2018-03-01T09:00:05.460Z,97193.93
2018-03-01T09:01:09.207Z,97198.99
2018-03-01T09:02:12.670Z,97201.24
2018-03-01T09:03:16.431Z,97192.03
2018-03-01T09:04:19.770Z,97178.55
2018-03-01T09:05:23.226Z,97185.58
2018-03-01T09:06:26.863Z,97187.80
2018-03-01T09:07:30.906Z,97178.12
2018-03-01T09:08:34.345Z,97181.14
2018-03-01T09:09:38.148Z,97168.52
2018-03-01T09:10:41.639Z,97164.22
2018-03-01T09:11:45.045Z,97173.30
2018-03-01T09:12:48.564Z,97163.81
2018-03-01T09:13:52.367Z,97168.09
2018-03-01T09:14:55.848Z,97165.65
2018-03-01T09:15:59.185Z,97164.22
2018-03-01T09:17:02.730Z,97176.56
2018-03-01T09:18:06.206Z,97167.86
2018-03-01T09:19:09.670Z,97170.11
2018-03-01T09:20:13.578Z,97168.79
2018-03-01T09:21:16.875Z,97175.22
2018-03-01T09:22:20.305Z,97168.05
2018-03-01T09:23:23.664Z,97178.58
2018-03-01T09:24:26.992Z,97172.58
2018-03-01T09:25:30.402Z,97169.67
2018-03-01T09:26:33.813Z,97175.72
2018-03-01T09:27:37.260Z,97175.63
2018-03-01T09:28:40.741Z,97172.13
2018-03-01T09:29:44.193Z,97167.26
2018-03-01T09:30:47.684Z,97162.14
2018-03-01T09:31:51.483Z,97169.97
2018-03-01T09:32:54.948Z,97157.70
2018-03-01T09:33:58.402Z,97176.91
2018-03-01T09:35:01.904Z,97171.88
2018-03-01T09:36:05.281Z,97163.16
2018-03-01T09:37:08.749Z,97171.38
2018-03-01T09:38:12.520Z,97172.70
2018-03-01T09:39:15.969Z,97170.55
2018-03-01T09:40:19.438Z,97135.55
2018-03-01T09:41:23.016Z,97150.39
2018-03-01T09:42:26.587Z,97153.03
2018-03-01T09:43:30.415Z,97158.11
2018-03-01T09:44:34.298Z,97159.27
2018-03-01T09:45:37.604Z,97152.47
2018-03-01T09:46:41.051Z,97149.24
2018-03-01T09:47:44.414Z,97155.00
2018-03-01T09:48:47.724Z,97155.23
2018-03-01T09:49:51.026Z,97152.98
2018-03-01T09:50:54.628Z,97140.38
2018-03-01T09:51:57.995Z,97148.80
2018-03-01T09:53:01.417Z,97154.73
2018-03-01T09:54:04.817Z,97144.70
2018-03-01T09:55:08.361Z,97139.86
2018-03-01T09:56:12.124Z,97137.30
2018-03-01T09:57:17.474Z,97147.10
2018-03-01T09:58:20.894Z,97129.28
2018-03-01T09:59:24.282Z,97117.55
2018-03-01T10:00:27.611Z,97123.12
2018-03-01T10:01:30.997Z,97127.42
2018-03-01T10:02:36.796Z,97127.72
2018-03-01T10:03:43.149Z,97126.83
2018-03-01T10:04:46.431Z,97116.98
2018-03-01T10:05:49.984Z,97122.19
2018-03-01T10:06:53.433Z,97110.80
2018-03-01T10:07:56.791Z,97106.13
2018-03-01T10:09:00.186Z,97111.83
2018-03-01T10:10:03.686Z,97111.33
2018-03-01T10:11:07.149Z,97094.36
2018-03-01T10:12:10.693Z,97108.66
2018-03-01T10:13:14.162Z,97121.55
2018-03-01T10:14:17.537Z,97120.02
2018-03-01T10:15:21.341Z,97108.14
2018-03-01T10:16:24.691Z,97108.00
2018-03-01T10:17:28.131Z,97111.17
2018-03-01T10:18:31.625Z,97089.54
2018-03-01T10:19:34.872Z,97098.92
2018-03-01T10:20:38.267Z,97100.23
2018-03-01T10:21:42.054Z,97094.58
2018-03-01T10:22:45.400Z,97100.78
2018-03-01T10:24:54.670Z,97097.05
2018-03-01T10:25:58.449Z,97119.41
2018-03-01T10:27:01.871Z,97112.41
2018-03-01T10:28:05.486Z,97114.30
2018-03-01T10:29:09.007Z,97120.25
2018-03-01T10:30:12.576Z,97114.05
2018-03-01T10:31:15.955Z,97115.89
2018-03-01T10:32:19.206Z,97117.67
2018-03-01T10:33:23.266Z,97112.14
2018-03-01T10:34:26.610Z,97114.02
2018-03-01T10:35:30.022Z,97106.97
2018-03-01T10:36:34.111Z,97104.41
2018-03-01T10:37:38.084Z,97110.59
2018-03-01T10:38:41.511Z,97106.22
2018-03-01T10:39:45.780Z,97096.53
2018-03-01T10:40:49.177Z,97099.98
2018-03-01T10:41:52.678Z,97088.14
2018-03-01T10:42:56.163Z,97089.63
2018-03-01T10:44:00.180Z,97067.27
2018-03-01T10:45:03.693Z,97087.38
2018-03-01T10:46:07.496Z,97082.91
2018-03-01T10:47:10.940Z,97080.95
2018-03-01T10:48:14.342Z,97074.45
2018-03-01T10:49:17.739Z,97077.45
2018-03-01T10:50:21.164Z,97068.36
2018-03-01T10:51:24.661Z,97082.17
2018-03-01T10:52:28.387Z,97062.13
2018-03-01T10:53:31.770Z,97082.09
2018-03-01T10:54:35.111Z,97081.64
2018-03-01T21:12:24.401Z,96603.97
2018-03-01T21:13:27.603Z,96588.47
2018-03-01T21:14:30.805Z,96591.63
2018-03-01T21:15:34.125Z,96587.43
2018-03-01T21:16:37.574Z,96577.81
2018-03-01T21:17:40.933Z,96583.05
2018-03-01T21:18:44.703Z,96596.78
2018-03-01T21:19:48.072Z,96578.37
2018-03-01T21:20:51.320Z,96582.16
2018-03-01T21:21:54.611Z,96588.16
2018-03-01T21:22:58.222Z,96565.46
2018-03-01T21:24:01.916Z,96590.23
2018-03-01T21:25:05.716Z,96593.79
2018-03-01T21:26:09.047Z,96583.98
2018-03-01T21:27:12.344Z,96580.27
2018-03-01T21:28:15.708Z,96585.89
2018-03-01T21:29:19.022Z,96589.11
2018-03-01T21:30:22.312Z,96586.00
2018-03-01T21:31:26.014Z,96590.69
2018-03-01T21:32:29.403Z,96573.07
2018-03-01T21:33:32.753Z,96591.66
2018-03-01T21:34:36.067Z,96567.00
2018-03-01T21:35:39.386Z,96566.73
2018-03-01T21:36:42.715Z,96572.45
2018-03-01T21:37:46.474Z,96562.42
2018-03-01T21:38:49.824Z,96564.02
2018-03-01T21:39:53.162Z,96571.83
2018-03-01T21:40:56.444Z,96564.78
2018-03-01T21:41:59.826Z,96565.91
2018-03-01T21:43:03.137Z,96576.50
2018-03-01T21:44:06.814Z,96562.77
2018-03-01T21:45:10.154Z,96580.62
2018-03-01T21:46:13.482Z,96584.31
2018-03-01T21:47:16.750Z,96578.04
2018-03-01T21:48:19.933Z,96574.55
2018-03-01T21:49:23.349Z,96560.08
2018-03-01T21:50:26.689Z,96578.22
2018-03-01T21:51:29.831Z,96572.63
2018-03-01T21:52:32.973Z,96575.81
2018-03-01T21:53:36.127Z,96579.06
2018-03-01T21:54:39.222Z,96576.17
2018-03-01T21:55:42.807Z,96573.84
2018-03-01T21:56:46.142Z,96575.11
2018-03-01T21:57:49.459Z,96566.52
2018-03-01T21:58:52.728Z,96567.62
2018-03-01T21:59:55.963Z,96573.09
2018-03-01T22:00:59.118Z,96570.69
2018-03-01T22:02:02.833Z,96572.71
2018-03-01T22:03:06.177Z,96549.80
2018-03-01T22:04:09.686Z,96561.48
2018-03-01T22:05:12.913Z,96564.98
2018-03-01T22:06:16.562Z,96563.20
2018-03-01T22:07:19.901Z,96560.78
2018-03-01T22:08:24.764Z,96558.36
2018-03-01T22:09:28.065Z,96562.08
2018-03-01T22:10:31.317Z,96570.01
2018-03-01T22:11:34.636Z,96565.03
2018-03-01T22:12:38.174Z,96560.52
2018-03-01T22:13:41.453Z,96550.72
2018-03-01T22:14:45.076Z,96559.45
2018-03-01T22:15:48.572Z,96561.11
2018-03-01T22:16:51.914Z,96565.97
2018-03-01T22:17:55.276Z,96565.69
2018-03-01T22:18:58.611Z,96565.98
2018-03-01T22:20:02.151Z,96568.02
2018-03-01T22:21:05.899Z,96574.08
2018-03-01T22:22:09.165Z,96567.28
2018-03-01T22:23:12.497Z,96563.19
2018-03-01T22:24:15.800Z,96560.16
2018-03-01T22:25:19.231Z,96555.22
2018-03-01T22:26:22.603Z,96554.95
2018-03-01T22:27:26.310Z,96557.22
2018-03-01T22:28:29.479Z,96557.90
2018-03-01T22:29:32.631Z,96552.75
2018-03-01T22:30:35.915Z,96546.30
2018-03-01T22:31:39.838Z,96551.27
2018-03-01T22:32:43.200Z,96555.91
2018-03-01T22:33:46.848Z,96552.69
2018-03-01T22:34:50.144Z,96544.25
2018-03-01T22:35:53.595Z,96555.48
2018-03-01T22:36:56.939Z,96558.33
2018-03-01T22:38:00.238Z,96554.13
2018-03-01T22:39:03.538Z,96563.70
2018-03-01T22:40:07.418Z,96551.95
2018-03-01T22:41:10.847Z,96535.53
2018-03-01T22:42:14.184Z,96535.67
2018-03-01T22:43:17.364Z,96544.08
2018-03-01T22:44:20.768Z,96540.08